Time;durP1;ratioP1;P1;durP2;ratioP2;P2;SDS_P1;SDS_P2;PMS_P1;PMS_P2;Temp;Humidity;BMP_temperature;BMP_pressure;BME280_temperature;BME280_humidity;BME280_pressure;Samples;Min_cycle;Max_cycle;Signal;HPM_P1;HPM_P2
2022/07/31 00:00:39;;;;;;;6.55;3.10;;;;;;;;;;5077313;28;20036;-81
2022/07/31 00:03:05;;;;;;;5.85;3.40;;;;;;;;;;5081222;28;20038;-79
2022/07/31 00:05:32;;;;;;;7.22;3.30;;;;;;;;;;5084045;28;20043;-81
2022/07/31 00:07:58;;;;;;;4.82;3.70;;;;;;;;;;5078713;28;20477;-80
2022/07/31 00:10:24;;;;;;;7.15;3.75;;;;;;;;;;5073619;28;20039;-81
2022/07/31 00:12:50;;;;;;;6.60;3.75;;;;;;;;;;5087918;28;20128;-81
2022/07/31 00:15:17;;;;;;;9.27;4.10;;;;;;;;;;5070057;28;20087;-79
2022/07/31 00:17:43;;;;;;;7.82;4.22;;;;;;;;;;5073047;28;20040;-79
2022/07/31 00:20:14;;;;;;;6.63;3.92;;;;;;;;;;5091537;28;20524;-81
2022/07/31 00:22:41;;;;;;;8.15;3.92;;;;;;;;;;5060755;28;20036;-79
2022/07/31 00:25:07;;;;;;;6.53;3.70;;;;;;;;;;5076834;28;20055;-81
2022/07/31 00:27:34;;;;;;;8.30;3.63;;;;;;;;;;5066606;28;20115;-80
2022/07/31 00:30:00;;;;;;;7.72;4.25;;;;;;;;;;5047760;28;20047;-80
2022/07/31 00:32:26;;;;;;;6.25;3.55;;;;;;;;;;5077839;28;20043;-81
2022/07/31 00:34:52;;;;;;;7.35;3.55;;;;;;;;;;5076611;28;20067;-81
2022/07/31 00:37:18;;;;;;;8.65;3.95;;;;;;;;;;5077060;28;20075;-81
2022/07/31 00:39:44;;;;;;;5.78;3.67;;;;;;;;;;5082106;28;20040;-80
2022/07/31 00:42:20;;;;;;;4.38;3.10;;;;;;;;;;5067290;28;20067;-80
2022/07/31 00:44:46;;;;;;;7.63;3.50;;;;;;;;;;5076487;28;20047;-81
2022/07/31 00:47:13;;;;;;;7.15;3.67;;;;;;;;;;5076677;28;20040;-80
2022/07/31 00:49:39;;;;;;;8.70;3.90;;;;;;;;;;5076917;28;20054;-72
2022/07/31 00:52:05;;;;;;;5.32;3.70;;;;;;;;;;5059904;28;20076;-81
2022/07/31 00:54:32;;;;;;;7.90;3.80;;;;;;;;;;5076516;28;20044;-80
2022/07/31 00:56:58;;;;;;;5.80;3.70;;;;;;;;;;5094108;28;20044;-80
2022/07/31 00:59:24;;;;;;;6.20;3.60;;;;;;;;;;5059697;28;20044;-77
2022/07/31 01:01:50;;;;;;;7.18;3.50;;;;;;;;;;5075499;28;20048;-72
2022/07/31 01:04:17;;;;;;;5.13;3.78;;;;;;;;;;5075468;28;20515;-73
2022/07/31 01:06:44;;;;;;;6.45;3.90;;;;;;;;;;5074202;28;20075;-73
2022/07/31 01:09:10;;;;;;;4.93;3.65;;;;;;;;;;5076116;28;20044;-81
2022/07/31 01:11:55;;;;;;;5.53;4.15;;;;;;;;;;5075597;28;20036;-81
2022/07/31 01:14:23;;;;;;;6.55;4.00;;;;;;;;;;5053806;28;20056;-73
2022/07/31 01:16:51;;;;;;;8.88;4.47;;;;;;;;;;5061924;28;20035;-74
2022/07/31 01:19:22;;;;;;;6.47;4.40;;;;;;;;;;5095968;28;20082;-81
2022/07/31 01:22:03;;;;;;;6.95;4.57;;;;;;;;;;5084158;28;20064;-78
2022/07/31 01:24:50;;;;;;;7.47;4.47;;;;;;;;;;5080237;28;20063;-72
2022/07/31 01:27:36;;;;;;;8.32;4.53;;;;;;;;;;5074634;28;20044;-80
2022/07/31 01:30:03;;;;;;;9.27;4.70;;;;;;;;;;5064363;28;20127;-72
2022/07/31 01:32:34;;;;;;;6.70;4.40;;;;;;;;;;5075377;28;20076;-80
2022/07/31 01:35:25;;;;;;;5.85;4.50;;;;;;;;;;5082958;28;20071;-80
2022/07/31 01:38:00;;;;;;;8.48;4.82;;;;;;;;;;5088182;28;20043;-81
2022/07/31 01:40:30;;;;;;;7.63;4.38;;;;;;;;;;5096488;28;20075;-71
2022/07/31 01:42:58;;;;;;;7.05;4.75;;;;;;;;;;5082286;28;20036;-80
2022/07/31 01:45:25;;;;;;;8.95;4.10;;;;;;;;;;5075235;28;20032;-77
2022/07/31 01:47:52;;;;;;;7.07;4.50;;;;;;;;;;5076623;28;20051;-81
2022/07/31 01:50:19;;;;;;;6.85;4.63;;;;;;;;;;5059184;28;20388;-76
2022/07/31 01:52:45;;;;;;;6.95;4.68;;;;;;;;;;5058688;28;20050;-72
2022/07/31 01:55:12;;;;;;;9.98;4.78;;;;;;;;;;5059249;28;20396;-80
2022/07/31 01:57:39;;;;;;;6.75;5.10;;;;;;;;;;5056891;28;20060;-72
2022/07/31 02:00:07;;;;;;;9.23;5.18;;;;;;;;;;5039333;28;20044;-72
2022/07/31 02:02:34;;;;;;;8.25;4.90;;;;;;;;;;5070813;28;20032;-76
2022/07/31 02:05:02;;;;;;;8.05;5.55;;;;;;;;;;5097011;28;20120;-80
2022/07/31 02:07:28;;;;;;;6.95;4.25;;;;;;;;;;5076511;28;20484;-80
2022/07/31 02:09:55;;;;;;;7.32;4.43;;;;;;;;;;5082197;28;20442;-79
2022/07/31 02:12:22;;;;;;;11.18;4.43;;;;;;;;;;5074899;28;20047;-80
2022/07/31 02:14:49;;;;;;;8.43;4.28;;;;;;;;;;5048085;28;20067;-80
2022/07/31 02:17:16;;;;;;;7.32;4.57;;;;;;;;;;5071715;28;20461;-80
2022/07/31 02:19:44;;;;;;;7.93;5.15;;;;;;;;;;5056871;28;20139;-80
2022/07/31 02:22:10;;;;;;;8.38;4.60;;;;;;;;;;5064713;28;20040;-80
2022/07/31 02:24:36;;;;;;;9.45;5.18;;;;;;;;;;5058601;28;20036;-72
2022/07/31 02:27:02;;;;;;;8.75;5.03;;;;;;;;;;5074692;28;20048;-73
2022/07/31 02:29:31;;;;;;;6.03;4.78;;;;;;;;;;5074249;28;20503;-71
2022/07/31 02:31:58;;;;;;;7.97;5.47;;;;;;;;;;5092611;28;20058;-81
2022/07/31 02:34:25;;;;;;;10.75;5.63;;;;;;;;;;5093187;28;20035;-81
2022/07/31 02:36:53;;;;;;;8.77;5.70;;;;;;;;;;5075388;28;20028;-79
2022/07/31 02:39:20;;;;;;;10.55;5.50;;;;;;;;;;5074647;28;20047;-81
2022/07/31 02:41:46;;;;;;;8.77;5.32;;;;;;;;;;5060897;28;20482;-81
2022/07/31 02:44:13;;;;;;;7.45;5.60;;;;;;;;;;5058048;28;20182;-81
2022/07/31 02:46:41;;;;;;;8.10;5.93;;;;;;;;;;5074395;28;20067;-81
2022/07/31 02:49:08;;;;;;;9.80;5.88;;;;;;;;;;5074296;28;20040;-80
2022/07/31 02:51:34;;;;;;;7.88;5.88;;;;;;;;;;5067491;28;20106;-81
2022/07/31 02:54:00;;;;;;;9.57;5.97;;;;;;;;;;5075118;28;20055;-81
2022/07/31 02:56:28;;;;;;;10.10;6.45;;;;;;;;;;5075020;28;20067;-81
2022/07/31 02:58:54;;;;;;;7.15;5.72;;;;;;;;;;5073966;28;20067;-81
2022/07/31 03:01:20;;;;;;;9.20;6.03;;;;;;;;;;5068882;28;20042;-80
2022/07/31 03:03:46;;;;;;;11.57;6.10;;;;;;;;;;5085837;28;20484;-80
2022/07/31 03:06:13;;;;;;;10.90;5.95;;;;;;;;;;5059975;28;20085;-81
2022/07/31 03:08:39;;;;;;;8.93;5.88;;;;;;;;;;5074511;28;20545;-81
2022/07/31 03:11:05;;;;;;;9.32;5.85;;;;;;;;;;5057072;28;20094;-80
2022/07/31 03:13:33;;;;;;;8.18;5.63;;;;;;;;;;5092617;28;20475;-80
2022/07/31 03:15:59;;;;;;;6.88;5.80;;;;;;;;;;5065857;28;20036;-81
2022/07/31 03:18:26;;;;;;;7.53;5.90;;;;;;;;;;5082296;28;20039;-81
2022/07/31 03:20:52;;;;;;;12.32;5.70;;;;;;;;;;5078052;28;20484;-81
2022/07/31 03:23:24;;;;;;;8.80;6.00;;;;;;;;;;5057868;28;20044;-80
2022/07/31 03:25:50;;;;;;;9.32;6.00;;;;;;;;;;5073706;28;20063;-80
2022/07/31 03:28:18;;;;;;;10.60;5.95;;;;;;;;;;5064512;28;20042;-80
2022/07/31 03:30:45;;;;;;;12.43;6.05;;;;;;;;;;5076483;28;20093;-80
2022/07/31 03:33:11;;;;;;;13.25;6.47;;;;;;;;;;5092715;28;20052;-80
2022/07/31 03:35:37;;;;;;;11.25;6.22;;;;;;;;;;5070823;28;20067;-81
2022/07/31 03:38:04;;;;;;;8.13;5.45;;;;;;;;;;5082527;28;20433;-73
2022/07/31 03:40:31;;;;;;;10.40;6.88;;;;;;;;;;5095096;28;20512;-81
2022/07/31 03:42:57;;;;;;;12.27;6.07;;;;;;;;;;5096572;28;20109;-81
2022/07/31 03:45:24;;;;;;;8.80;6.70;;;;;;;;;;5092699;28;20036;-81
2022/07/31 03:47:50;;;;;;;9.35;6.43;;;;;;;;;;5090290;28;20543;-80
2022/07/31 03:50:16;;;;;;;9.13;6.38;;;;;;;;;;5081185;28;20104;-79
2022/07/31 03:52:43;;;;;;;10.95;6.50;;;;;;;;;;5069060;28;20048;-81
2022/07/31 03:55:10;;;;;;;6.88;5.68;;;;;;;;;;5075570;28;20109;-80
2022/07/31 03:57:36;;;;;;;9.70;5.97;;;;;;;;;;5099204;28;20172;-80
2022/07/31 04:00:03;;;;;;;9.90;6.30;;;;;;;;;;5098325;28;20044;-81
2022/07/31 04:02:30;;;;;;;7.65;5.95;;;;;;;;;;5072356;28;20044;-73
2022/07/31 04:04:56;;;;;;;9.52;6.05;;;;;;;;;;5086245;28;20036;-81
2022/07/31 04:07:23;;;;;;;10.57;6.13;;;;;;;;;;5075580;28;20036;-81
2022/07/31 04:09:49;;;;;;;6.47;5.60;;;;;;;;;;5070226;28;20044;-81
2022/07/31 04:12:15;;;;;;;10.55;6.28;;;;;;;;;;5030339;28;20036;-73
2022/07/31 04:14:41;;;;;;;9.02;6.43;;;;;;;;;;5072189;28;20080;-72
2022/07/31 04:17:07;;;;;;;7.57;6.15;;;;;;;;;;5106444;28;20027;-80
2022/07/31 04:19:34;;;;;;;11.20;6.60;;;;;;;;;;5084074;28;20561;-81
2022/07/31 04:22:00;;;;;;;8.75;6.20;;;;;;;;;;5076727;28;20090;-72
2022/07/31 04:24:26;;;;;;;10.88;6.68;;;;;;;;;;5095421;28;20046;-81
2022/07/31 04:26:56;;;;;;;8.63;6.70;;;;;;;;;;5085001;28;20106;-81
2022/07/31 04:29:22;;;;;;;9.02;6.18;;;;;;;;;;5060719;28;20130;-72
2022/07/31 04:31:49;;;;;;;9.00;6.03;;;;;;;;;;5075823;28;20043;-72
2022/07/31 04:34:15;;;;;;;8.63;6.82;;;;;;;;;;5076750;28;20462;-72
2022/07/31 04:36:41;;;;;;;10.05;6.60;;;;;;;;;;5060124;28;20040;-72
2022/07/31 04:39:07;;;;;;;9.82;6.50;;;;;;;;;;5076562;28;20075;-80
2022/07/31 04:41:33;;;;;;;9.60;6.43;;;;;;;;;;5059278;28;20043;-72
2022/07/31 04:43:59;;;;;;;8.93;6.50;;;;;;;;;;5076981;28;20507;-80
2022/07/31 04:46:25;;;;;;;10.43;6.35;;;;;;;;;;5077327;28;20039;-81
2022/07/31 04:48:52;;;;;;;9.45;6.30;;;;;;;;;;5095041;28;20044;-72
2022/07/31 04:51:23;;;;;;;8.73;6.15;;;;;;;;;;5076115;28;20040;-80
2022/07/31 04:53:49;;;;;;;8.68;6.20;;;;;;;;;;5060239;28;20126;-80
2022/07/31 04:56:32;;;;;;;8.00;6.05;;;;;;;;;;5060320;28;20040;-80
2022/07/31 04:58:58;;;;;;;10.55;6.28;;;;;;;;;;5076121;28;20090;-79
2022/07/31 05:01:24;;;;;;;9.20;6.15;;;;;;;;;;5075951;28;20123;-83
2022/07/31 05:03:50;;;;;;;8.90;6.18;;;;;;;;;;5078166;28;20107;-82
2022/07/31 05:06:16;;;;;;;9.52;6.10;;;;;;;;;;5075367;28;20039;-81
2022/07/31 05:08:42;;;;;;;7.40;5.97;;;;;;;;;;5075497;28;20127;-81
2022/07/31 05:11:24;;;;;;;8.55;5.80;;;;;;;;;;5076009;28;20044;-81
2022/07/31 05:13:50;;;;;;;8.50;5.95;;;;;;;;;;5084878;28;20093;-72
2022/07/31 05:16:17;;;;;;;8.45;5.97;;;;;;;;;;5078592;28;20040;-71
2022/07/31 05:18:46;;;;;;;10.13;6.65;;;;;;;;;;5085466;28;20032;-72
2022/07/31 05:21:13;;;;;;;10.48;6.47;;;;;;;;;;5079252;28;20039;-73
2022/07/31 05:23:40;;;;;;;9.35;5.90;;;;;;;;;;5075820;28;20032;-73
2022/07/31 05:26:06;;;;;;;10.27;6.65;;;;;;;;;;5074681;28;20044;-73
2022/07/31 05:28:32;;;;;;;9.55;5.78;;;;;;;;;;5075099;28;20524;-73
2022/07/31 05:30:58;;;;;;;8.73;6.20;;;;;;;;;;5075413;28;20553;-73
2022/07/31 05:33:25;;;;;;;8.63;6.32;;;;;;;;;;5076581;28;20032;-73
2022/07/31 05:35:51;;;;;;;9.48;6.40;;;;;;;;;;5076189;28;20036;-73
2022/07/31 05:38:17;;;;;;;7.95;6.22;;;;;;;;;;5066238;28;20044;-73
2022/07/31 05:40:43;;;;;;;8.13;6.00;;;;;;;;;;5073989;28;20123;-73
2022/07/31 05:43:09;;;;;;;8.75;6.22;;;;;;;;;;5058284;28;20040;-74
2022/07/31 05:45:36;;;;;;;8.77;6.70;;;;;;;;;;5079091;28;20488;-72
2022/07/31 05:48:02;;;;;;;8.43;6.53;;;;;;;;;;5081954;28;20477;-74
2022/07/31 05:50:28;;;;;;;7.95;6.72;;;;;;;;;;5077391;28;20040;-73
2022/07/31 05:52:54;;;;;;;9.80;6.32;;;;;;;;;;5083725;28;20036;-73
2022/07/31 05:55:20;;;;;;;9.02;6.20;;;;;;;;;;5074518;28;20058;-73
2022/07/31 05:57:47;;;;;;;12.02;6.70;;;;;;;;;;5092663;28;20570;-73
2022/07/31 06:00:15;;;;;;;8.70;6.53;;;;;;;;;;5074044;28;20040;-73
2022/07/31 06:02:41;;;;;;;12.65;6.88;;;;;;;;;;5056424;28;20067;-73
2022/07/31 06:05:07;;;;;;;9.10;6.90;;;;;;;;;;5074973;28;20074;-73
2022/07/31 06:07:33;;;;;;;9.57;7.15;;;;;;;;;;5074532;28;20079;-73
2022/07/31 06:10:00;;;;;;;8.60;6.88;;;;;;;;;;5049204;28;20479;-74
2022/07/31 06:12:26;;;;;;;10.98;6.70;;;;;;;;;;5068256;28;20499;-74
2022/07/31 06:14:52;;;;;;;8.50;6.80;;;;;;;;;;5068523;28;20087;-73
2022/07/31 06:17:18;;;;;;;12.30;6.63;;;;;;;;;;5066306;28;20040;-73
2022/07/31 06:19:44;;;;;;;8.00;6.22;;;;;;;;;;5076075;28;20040;-74
2022/07/31 06:22:10;;;;;;;15.30;6.78;;;;;;;;;;5073143;28;20144;-73
2022/07/31 06:24:36;;;;;;;10.32;7.00;;;;;;;;;;5074059;28;20043;-74
2022/07/31 06:27:03;;;;;;;10.73;7.20;;;;;;;;;;5069675;28;20052;-72
2022/07/31 06:29:29;;;;;;;12.40;7.18;;;;;;;;;;5078810;28;20434;-74
2022/07/31 06:31:56;;;;;;;7.75;6.80;;;;;;;;;;5084094;28;20093;-74
2022/07/31 06:34:23;;;;;;;8.95;7.30;;;;;;;;;;5086169;28;20044;-74
2022/07/31 06:36:50;;;;;;;10.32;7.45;;;;;;;;;;5090987;28;20073;-73
2022/07/31 06:39:16;;;;;;;8.57;7.20;;;;;;;;;;5087321;28;20044;-73
2022/07/31 06:41:43;;;;;;;9.25;7.55;;;;;;;;;;5084804;28;20484;-74
2022/07/31 06:44:09;;;;;;;9.35;6.88;;;;;;;;;;5087164;28;20499;-72
2022/07/31 06:46:35;;;;;;;10.27;7.43;;;;;;;;;;5086219;28;20039;-72
2022/07/31 06:49:01;;;;;;;10.90;7.43;;;;;;;;;;5090495;28;20050;-71
2022/07/31 06:51:27;;;;;;;9.45;7.45;;;;;;;;;;5072862;28;20039;-68
2022/07/31 06:53:53;;;;;;;11.15;7.47;;;;;;;;;;5069624;28;20365;-74
2022/07/31 06:56:19;;;;;;;12.40;7.78;;;;;;;;;;5084310;28;20040;-73
2022/07/31 06:58:45;;;;;;;11.57;7.65;;;;;;;;;;5090484;28;20036;-74
2022/07/31 07:01:12;;;;;;;10.55;7.45;;;;;;;;;;5087287;28;20441;-73
2022/07/31 07:03:39;;;;;;;10.32;8.35;;;;;;;;;;5058917;28;20032;-74
2022/07/31 07:06:05;;;;;;;12.15;8.00;;;;;;;;;;5082140;28;20043;-74
2022/07/31 07:08:31;;;;;;;10.98;8.23;;;;;;;;;;5094583;28;20040;-73
2022/07/31 07:10:57;;;;;;;11.45;7.93;;;;;;;;;;5104667;28;20032;-74
2022/07/31 07:13:25;;;;;;;11.57;7.00;;;;;;;;;;5074373;28;20032;-74
2022/07/31 07:15:58;;;;;;;11.80;7.65;;;;;;;;;;5056377;28;20032;-73
2022/07/31 07:18:25;;;;;;;10.77;7.30;;;;;;;;;;5080637;28;20036;-73
2022/07/31 07:20:51;;;;;;;11.60;7.65;;;;;;;;;;5057300;28;20443;-74
2022/07/31 07:23:18;;;;;;;12.10;7.53;;;;;;;;;;5077871;28;20498;-73
2022/07/31 07:25:44;;;;;;;9.85;7.90;;;;;;;;;;5099009;28;20059;-72
2022/07/31 07:28:10;;;;;;;10.57;7.50;;;;;;;;;;5097929;28;20126;-73
2022/07/31 07:30:36;;;;;;;10.18;8.25;;;;;;;;;;5094047;28;20484;-73
2022/07/31 07:33:04;;;;;;;12.57;7.90;;;;;;;;;;5078564;28;20127;-73
2022/07/31 07:35:30;;;;;;;12.98;7.60;;;;;;;;;;5098701;28;20500;-73
2022/07/31 07:37:57;;;;;;;12.68;7.88;;;;;;;;;;5096955;28;20118;-73
2022/07/31 07:40:24;;;;;;;10.57;7.97;;;;;;;;;;5116838;28;20097;-73
2022/07/31 07:42:50;;;;;;;11.57;7.45;;;;;;;;;;5083829;28;20054;-73
2022/07/31 07:45:16;;;;;;;13.35;7.63;;;;;;;;;;5076339;28;20074;-72
2022/07/31 07:47:42;;;;;;;14.80;8.15;;;;;;;;;;5089876;28;20067;-73
2022/07/31 07:50:09;;;;;;;14.45;8.25;;;;;;;;;;5097664;28;20051;-72
2022/07/31 07:52:35;;;;;;;10.02;7.25;;;;;;;;;;5096640;28;20043;-73
2022/07/31 07:55:01;;;;;;;13.60;7.85;;;;;;;;;;5085042;28;20417;-73
2022/07/31 07:57:28;;;;;;;12.32;7.95;;;;;;;;;;5099013;28;20039;-71
2022/07/31 07:59:54;;;;;;;11.75;7.70;;;;;;;;;;5099123;28;20040;-73
2022/07/31 08:02:20;;;;;;;12.07;7.25;;;;;;;;;;5092213;28;20039;-73
2022/07/31 08:04:47;;;;;;;12.70;7.60;;;;;;;;;;5080603;28;20145;-70
2022/07/31 08:07:13;;;;;;;13.65;7.78;;;;;;;;;;5085100;28;20039;-73
2022/07/31 08:09:39;;;;;;;12.68;8.02;;;;;;;;;;5098676;28;20043;-73
2022/07/31 08:12:05;;;;;;;12.93;8.35;;;;;;;;;;5098006;28;20407;-73
2022/07/31 08:14:31;;;;;;;13.45;8.35;;;;;;;;;;5080876;28;20040;-73
2022/07/31 08:16:57;;;;;;;11.93;8.32;;;;;;;;;;5077063;28;20040;-73
2022/07/31 08:19:23;;;;;;;13.07;8.27;;;;;;;;;;5076411;28;20042;-73
2022/07/31 08:21:50;;;;;;;12.30;8.00;;;;;;;;;;5076586;28;20032;-73
2022/07/31 08:24:16;;;;;;;12.75;8.07;;;;;;;;;;5060189;28;20036;-73
2022/07/31 08:29:28;;;;;;;12.90;8.50;;;;;;;;;;5074969;28;20501;-74
2022/07/31 08:31:54;;;;;;;12.55;8.48;;;;;;;;;;5061780;28;20297;-73
2022/07/31 08:34:20;;;;;;;11.00;8.40;;;;;;;;;;5089772;28;20112;-73
2022/07/31 08:36:46;;;;;;;17.77;9.50;;;;;;;;;;5073079;28;20492;-74
2022/07/31 08:39:12;;;;;;;13.30;8.82;;;;;;;;;;5034796;28;20423;-73
2022/07/31 08:41:39;;;;;;;14.90;9.27;;;;;;;;;;5058885;28;20051;-73
2022/07/31 08:44:09;;;;;;;15.70;9.40;;;;;;;;;;5065986;28;20028;-73
2022/07/31 08:46:39;;;;;;;14.60;9.30;;;;;;;;;;5049059;28;20036;-72
2022/07/31 08:49:05;;;;;;;14.30;9.23;;;;;;;;;;5081243;28;20036;-73
2022/07/31 08:51:34;;;;;;;14.13;9.65;;;;;;;;;;5077849;28;20040;-70
2022/07/31 08:54:02;;;;;;;13.50;9.25;;;;;;;;;;5069342;28;20048;-73
2022/07/31 08:56:28;;;;;;;13.70;9.63;;;;;;;;;;5074084;28;20126;-72
2022/07/31 08:58:56;;;;;;;14.00;10.07;;;;;;;;;;5062405;28;20186;-71
2022/07/31 09:01:22;;;;;;;14.63;9.98;;;;;;;;;;5060351;28;20036;-72
2022/07/31 09:03:48;;;;;;;14.10;9.45;;;;;;;;;;5095997;28;20039;-73
2022/07/31 09:06:14;;;;;;;14.23;9.57;;;;;;;;;;5080356;28;20067;-72
2022/07/31 09:08:40;;;;;;;15.18;11.07;;;;;;;;;;5079668;28;20044;-73
2022/07/31 09:11:08;;;;;;;14.70;10.80;;;;;;;;;;5075179;28;20492;-73
2022/07/31 09:13:34;;;;;;;16.48;11.60;;;;;;;;;;5076191;28;20567;-73
2022/07/31 09:16:00;;;;;;;18.10;11.02;;;;;;;;;;5065129;28;20620;-73
2022/07/31 09:18:26;;;;;;;14.18;11.07;;;;;;;;;;5075707;28;20036;-72
2022/07/31 09:20:56;;;;;;;15.40;11.05;;;;;;;;;;5076939;28;20036;-73
2022/07/31 09:23:23;;;;;;;19.05;10.25;;;;;;;;;;5082653;28;20040;-72
2022/07/31 09:25:55;;;;;;;15.15;10.80;;;;;;;;;;5077302;28;20047;-71
2022/07/31 09:28:31;;;;;;;14.48;11.07;;;;;;;;;;5076463;28;20048;-73
2022/07/31 09:30:57;;;;;;;15.73;11.23;;;;;;;;;;5058605;28;20123;-73
2022/07/31 09:33:23;;;;;;;15.77;11.23;;;;;;;;;;5075858;28;20048;-72
2022/07/31 09:35:50;;;;;;;15.35;11.27;;;;;;;;;;5092941;28;20039;-73
2022/07/31 09:38:17;;;;;;;18.08;12.27;;;;;;;;;;5076612;28;20765;-72
2022/07/31 09:40:44;;;;;;;17.48;12.07;;;;;;;;;;5044907;28;20488;-73
2022/07/31 09:43:18;;;;;;;15.25;11.38;;;;;;;;;;5068975;28;20043;-73
2022/07/31 09:45:56;;;;;;;17.65;11.68;;;;;;;;;;5043435;28;20036;-73
2022/07/31 09:48:22;;;;;;;15.38;11.35;;;;;;;;;;5061395;28;20032;-72
2022/07/31 09:50:53;;;;;;;18.33;12.23;;;;;;;;;;5060618;28;20040;-71
2022/07/31 09:53:19;;;;;;;15.18;11.57;;;;;;;;;;5079677;28;20056;-72
2022/07/31 09:55:52;;;;;;;16.65;11.77;;;;;;;;;;5080612;28;20512;-78
2022/07/31 09:58:19;;;;;;;17.45;12.35;;;;;;;;;;5062528;28;20119;-79
2022/07/31 10:00:50;;;;;;;17.17;12.65;;;;;;;;;;5061241;28;20115;-79
2022/07/31 10:03:17;;;;;;;14.82;11.80;;;;;;;;;;5068233;28;20071;-78
2022/07/31 10:05:44;;;;;;;16.23;12.88;;;;;;;;;;5083631;28;20092;-78
2022/07/31 10:08:12;;;;;;;17.10;12.52;;;;;;;;;;5048757;28;20400;-79
2022/07/31 10:10:38;;;;;;;21.20;13.35;;;;;;;;;;5067557;28;20074;-79
2022/07/31 10:13:09;;;;;;;18.08;13.90;;;;;;;;;;5060018;28;20036;-72
2022/07/31 10:15:36;;;;;;;19.00;13.05;;;;;;;;;;5071298;28;20115;-77
2022/07/31 10:18:04;;;;;;;19.20;14.10;;;;;;;;;;5078880;28;20067;-80
2022/07/31 10:20:30;;;;;;;19.55;13.85;;;;;;;;;;5084180;28;20120;-80
2022/07/31 10:23:00;;;;;;;19.38;14.35;;;;;;;;;;5074384;28;20094;-78
2022/07/31 10:25:29;;;;;;;23.92;15.18;;;;;;;;;;5074186;28;20568;-72
2022/07/31 10:27:56;;;;;;;23.05;15.13;;;;;;;;;;5081868;28;20119;-72
2022/07/31 10:30:22;;;;;;;22.40;16.02;;;;;;;;;;5074720;28;20047;-78
2022/07/31 10:32:49;;;;;;;21.63;15.63;;;;;;;;;;5074154;28;20036;-73
2022/07/31 10:35:16;;;;;;;20.35;16.20;;;;;;;;;;5057828;28;20040;-72
2022/07/31 10:37:54;;;;;;;22.98;16.70;;;;;;;;;;5072877;28;20066;-72
2022/07/31 10:40:27;;;;;;;22.33;16.63;;;;;;;;;;5073203;28;20047;-71
2022/07/31 10:43:10;;;;;;;23.30;17.40;;;;;;;;;;5057265;28;20036;-72
2022/07/31 10:45:47;;;;;;;24.95;18.15;;;;;;;;;;5071328;28;20043;-72
2022/07/31 10:48:14;;;;;;;28.02;18.42;;;;;;;;;;5060293;28;20393;-72
2022/07/31 10:50:40;;;;;;;25.67;18.92;;;;;;;;;;5102353;28;20062;-73
2022/07/31 10:53:07;;;;;;;28.63;20.80;;;;;;;;;;5057769;28;20032;-74
2022/07/31 10:55:34;;;;;;;28.63;20.25;;;;;;;;;;5069474;28;20122;-74
2022/07/31 10:58:26;;;;;;;26.20;19.17;;;;;;;;;;5077588;28;20051;-75
2022/07/31 11:00:52;;;;;;;29.85;20.92;;;;;;;;;;5063740;28;20048;-75
2022/07/31 11:03:20;;;;;;;31.80;22.55;;;;;;;;;;5095744;28;20061;-75
2022/07/31 11:05:57;;;;;;;31.42;22.85;;;;;;;;;;5086486;28;20043;-83
2022/07/31 11:08:23;;;;;;;33.92;22.77;;;;;;;;;;5072583;28;20039;-83
2022/07/31 11:10:53;;;;;;;32.95;23.02;;;;;;;;;;5085653;28;20040;-82
2022/07/31 11:13:21;;;;;;;32.90;22.88;;;;;;;;;;5105252;28;20042;-84
2022/07/31 11:15:48;;;;;;;33.75;21.65;;;;;;;;;;5048036;28;20032;-86
2022/07/31 11:18:15;;;;;;;32.90;22.50;;;;;;;;;;5073557;28;20040;-84
2022/07/31 11:20:45;;;;;;;31.75;22.05;;;;;;;;;;5074196;28;20044;-84
2022/07/31 11:23:14;;;;;;;39.42;24.45;;;;;;;;;;5056024;28;20042;-85
2022/07/31 11:25:40;;;;;;;31.58;22.13;;;;;;;;;;5068853;28;20102;-82
2022/07/31 11:28:11;;;;;;;34.42;23.48;;;;;;;;;;5069641;28;20580;-84
2022/07/31 11:30:56;;;;;;;33.45;22.90;;;;;;;;;;5065546;28;20048;-83
2022/07/31 11:33:45;;;;;;;30.98;23.08;;;;;;;;;;5057878;28;20063;-84
2022/07/31 11:36:11;;;;;;;32.85;22.85;;;;;;;;;;5073973;28;20050;-75
2022/07/31 11:38:38;;;;;;;35.47;22.95;;;;;;;;;;5057123;28;20043;-80
2022/07/31 11:41:04;;;;;;;31.70;22.30;;;;;;;;;;5070630;28;20053;-81
2022/07/31 11:43:30;;;;;;;31.95;21.65;;;;;;;;;;5040392;28;20044;-77
2022/07/31 11:45:57;;;;;;;31.85;22.90;;;;;;;;;;5063815;28;20523;-83
2022/07/31 11:48:25;;;;;;;28.52;22.25;;;;;;;;;;5058248;28;20083;-83
2022/07/31 11:50:51;;;;;;;33.30;22.85;;;;;;;;;;5061585;28;20492;-82
2022/07/31 11:53:18;;;;;;;31.42;23.13;;;;;;;;;;5060866;28;20323;-81
2022/07/31 11:55:45;;;;;;;31.17;21.55;;;;;;;;;;5070038;28;20040;-80
2022/07/31 11:58:11;;;;;;;32.35;22.65;;;;;;;;;;5049495;28;20449;-82
2022/07/31 12:00:38;;;;;;;33.90;21.48;;;;;;;;;;5061265;28;20401;-83
2022/07/31 12:03:05;;;;;;;32.67;23.30;;;;;;;;;;5067051;28;20089;-81
2022/07/31 12:05:31;;;;;;;30.38;21.95;;;;;;;;;;5055436;28;20052;-77
2022/07/31 12:07:57;;;;;;;32.17;21.33;;;;;;;;;;5041953;28;20123;-85
2022/07/31 12:10:24;;;;;;;31.42;20.60;;;;;;;;;;5082738;28;20058;-86
2022/07/31 12:12:50;;;;;;;28.98;20.17;;;;;;;;;;5099999;28;20040;-78
2022/07/31 12:15:17;;;;;;;29.15;20.58;;;;;;;;;;5093780;28;20138;-82
2022/07/31 12:17:44;;;;;;;30.65;21.60;;;;;;;;;;5078233;28;20090;-81
2022/07/31 12:20:10;;;;;;;31.67;20.55;;;;;;;;;;5059168;28;20048;-85
2022/07/31 12:22:36;;;;;;;29.60;20.15;;;;;;;;;;5079842;28;20039;-84
2022/07/31 12:25:03;;;;;;;25.55;18.20;;;;;;;;;;5083265;28;20036;-83
2022/07/31 12:27:29;;;;;;;27.80;20.17;;;;;;;;;;5079961;28;20082;-86
2022/07/31 12:29:55;;;;;;;31.10;19.83;;;;;;;;;;5060692;28;20233;-85
2022/07/31 12:32:25;;;;;;;25.75;18.45;;;;;;;;;;5075787;28;20043;-76
2022/07/31 12:35:00;;;;;;;27.83;18.88;;;;;;;;;;5077956;28;20040;-86
2022/07/31 12:37:26;;;;;;;26.55;18.60;;;;;;;;;;5075523;28;20044;-86
2022/07/31 12:39:53;;;;;;;23.60;17.23;;;;;;;;;;5087235;28;20044;-73
2022/07/31 12:42:40;;;;;;;20.40;15.57;;;;;;;;;;5109621;28;20039;-75
2022/07/31 12:45:06;;;;;;;16.17;11.98;;;;;;;;;;5077236;28;20040;-75
2022/07/31 12:47:33;;;;;;;17.48;13.40;;;;;;;;;;5076257;28;20036;-75
2022/07/31 12:50:00;;;;;;;17.27;12.45;;;;;;;;;;5080013;28;20091;-75
2022/07/31 12:52:27;;;;;;;15.52;11.60;;;;;;;;;;5093948;28;20045;-76
2022/07/31 12:54:53;;;;;;;16.33;11.13;;;;;;;;;;5072723;28;20039;-74
2022/07/31 12:57:19;;;;;;;16.23;11.05;;;;;;;;;;5069573;28;20135;-74
2022/07/31 12:59:46;;;;;;;12.30;9.32;;;;;;;;;;5074561;28;20039;-72
2022/07/31 13:02:12;;;;;;;14.27;10.20;;;;;;;;;;5067661;28;20480;-73
2022/07/31 13:04:38;;;;;;;13.43;10.00;;;;;;;;;;5071206;28;20054;-72
2022/07/31 13:07:04;;;;;;;10.57;8.57;;;;;;;;;;5071989;28;20036;-72
2022/07/31 13:09:30;;;;;;;9.50;7.57;;;;;;;;;;5060571;28;20126;-72
2022/07/31 13:11:56;;;;;;;11.13;7.00;;;;;;;;;;5065753;28;20040;-75
2022/07/31 13:14:23;;;;;;;8.48;6.57;;;;;;;;;;5087129;28;20404;-73
2022/07/31 13:16:50;;;;;;;8.60;5.72;;;;;;;;;;5077650;28;20102;-74
2022/07/31 13:19:16;;;;;;;8.18;5.90;;;;;;;;;;5076957;28;20042;-75
2022/07/31 13:21:42;;;;;;;7.57;5.60;;;;;;;;;;5090659;28;20080;-76
2022/07/31 13:24:09;;;;;;;8.60;4.80;;;;;;;;;;5067145;28;20040;-76
2022/07/31 13:26:35;;;;;;;6.22;4.82;;;;;;;;;;5055573;28;20501;-76
2022/07/31 13:29:02;;;;;;;7.03;4.95;;;;;;;;;;5074261;28;20051;-75
2022/07/31 13:31:28;;;;;;;6.15;4.57;;;;;;;;;;5045274;28;20055;-76
2022/07/31 13:33:54;;;;;;;5.95;4.35;;;;;;;;;;5050444;28;20032;-75
2022/07/31 13:36:20;;;;;;;5.32;4.07;;;;;;;;;;5055407;28;20048;-78
2022/07/31 13:38:47;;;;;;;7.15;4.47;;;;;;;;;;5072341;28;20044;-75
2022/07/31 13:41:29;;;;;;;5.40;4.10;;;;;;;;;;5058413;28;20075;-76
2022/07/31 13:43:56;;;;;;;5.63;4.70;;;;;;;;;;5041350;28;20036;-76
2022/07/31 13:46:22;;;;;;;5.45;3.50;;;;;;;;;;5055679;28;20166;-76
2022/07/31 13:48:50;;;;;;;5.60;3.15;;;;;;;;;;5075843;28;20114;-74
2022/07/31 13:51:16;;;;;;;6.05;4.07;;;;;;;;;;5058411;28;20036;-78
2022/07/31 13:53:42;;;;;;;4.90;3.25;;;;;;;;;;5067784;28;20029;-76
2022/07/31 13:56:09;;;;;;;4.00;3.17;;;;;;;;;;5075699;28;20043;-78
2022/07/31 13:58:35;;;;;;;4.18;3.17;;;;;;;;;;5070534;28;20047;-73
2022/07/31 14:01:02;;;;;;;4.50;3.38;;;;;;;;;;5054008;28;20047;-75
2022/07/31 14:03:28;;;;;;;7.70;3.72;;;;;;;;;;5069706;28;20032;-74
2022/07/31 14:05:54;;;;;;;7.13;3.97;;;;;;;;;;5053255;28;20059;-79
2022/07/31 14:08:20;;;;;;;6.68;3.78;;;;;;;;;;5054635;28;20040;-77
2022/07/31 14:10:47;;;;;;;8.05;4.28;;;;;;;;;;5039285;28;20072;-77
2022/07/31 14:13:13;;;;;;;5.72;4.22;;;;;;;;;;5054599;28;20044;-79
2022/07/31 14:15:40;;;;;;;6.30;4.50;;;;;;;;;;5052291;28;20471;-75
2022/07/31 14:18:06;;;;;;;8.82;4.85;;;;;;;;;;5054930;28;20040;-75
2022/07/31 14:20:35;;;;;;;6.57;5.32;;;;;;;;;;5069614;28;20453;-79
2022/07/31 14:23:02;;;;;;;6.13;5.30;;;;;;;;;;5057870;28;20484;-78
2022/07/31 14:25:29;;;;;;;6.75;5.10;;;;;;;;;;5073149;28;20082;-74
2022/07/31 14:27:55;;;;;;;6.85;4.85;;;;;;;;;;5078603;28;20115;-74
2022/07/31 14:30:21;;;;;;;7.90;4.57;;;;;;;;;;5074153;28;20044;-78
2022/07/31 14:32:47;;;;;;;7.60;4.95;;;;;;;;;;5074110;28;20043;-76
2022/07/31 14:35:14;;;;;;;5.95;4.63;;;;;;;;;;5051969;28;20037;-77
2022/07/31 14:37:41;;;;;;;6.68;4.32;;;;;;;;;;5065661;28;20113;-76